Time;durP1;ratioP1;P1;durP2;ratioP2;P2;SDS_P1;SDS_P2;PMS_P1;PMS_P2;Temp;Humidity;BMP_temperature;BMP_pressure;BME280_temperature;BME280_humidity;BME280_pressure;Samples;Min_cycle;Max_cycle;Signal;HPM_P1;HPM_P2
2022/01/02 09:10:32;;;;;;;6.22;2.70;;;11.80;99.90;;;;;;6029343;23;20055;31
2022/01/02 09:13:00;;;;;;;8.90;2.90;;;11.80;99.90;;;;;;4962592;28;37029;-62
2022/01/02 09:15:28;;;;;;;7.07;3.38;;;11.80;99.90;;;;;;5373215;23;37498;-62
2022/01/02 09:18:10;;;;;;;10.10;3.80;;;11.80;99.90;;;;;;4985724;28;36535;-63
2022/01/02 09:23:12;;;;;;;9.77;4.90;;;11.80;99.90;;;;;;5516883;23;20064;-63
2022/01/02 09:25:39;;;;;;;12.73;5.13;;;11.80;99.90;;;;;;5022269;28;38014;-63
2022/01/02 09:28:08;;;;;;;10.32;5.18;;;11.80;99.90;;;;;;5021960;28;36322;-63
2022/01/02 09:30:36;;;;;;;12.88;4.55;;;11.80;99.90;;;;;;5021673;28;37557;-62
2022/01/02 09:33:08;;;;;;;12.75;5.40;;;11.80;99.90;;;;;;5022093;28;37613;-63
2022/01/02 09:35:36;;;;;;;12.90;4.85;;;11.80;99.90;;;;;;5022524;28;38240;-63
2022/01/02 09:38:03;;;;;;;12.77;5.60;;;11.80;99.90;;;;;;5022432;28;36714;-63
2022/01/02 09:40:32;;;;;;;12.30;5.53;;;11.70;99.90;;;;;;5021446;28;39398;-63
2022/01/02 09:43:00;;;;;;;12.63;4.53;;;11.70;99.90;;;;;;5021775;28;37716;-63
2022/01/02 09:45:31;;;;;;;12.02;5.13;;;11.70;99.90;;;;;;5023565;28;37409;-63
2022/01/02 09:47:59;;;;;;;9.60;5.30;;;11.70;99.90;;;;;;5020239;28;36222;-63
2022/01/02 09:50:27;;;;;;;10.50;5.35;;;11.70;99.90;;;;;;5022592;28;37136;-63
2022/01/02 09:52:54;;;;;;;11.07;5.55;;;11.70;99.90;;;;;;5022858;28;37949;-63
2022/01/02 09:55:22;;;;;;;12.02;6.20;;;11.70;99.90;;;;;;5026212;28;37333;-63
2022/01/02 09:57:49;;;;;;;11.52;5.70;;;11.70;99.90;;;;;;5029045;28;36142;-63
2022/01/02 10:00:19;;;;;;;10.85;6.00;;;11.70;99.90;;;;;;5027288;28;37737;-63
2022/01/02 10:02:56;;;;;;;14.10;6.35;;;11.70;99.90;;;;;;5028027;28;37640;-63
2022/01/02 10:05:24;;;;;;;17.58;7.07;;;11.60;99.90;;;;;;5026653;28;39016;-63
2022/01/02 10:07:52;;;;;;;9.90;5.25;;;11.60;99.90;;;;;;5027167;28;36433;-62
2022/01/02 10:10:20;;;;;;;11.82;6.03;;;11.60;99.90;;;;;;5027165;28;38577;-63
2022/01/02 10:12:48;;;;;;;13.88;5.78;;;11.60;99.90;;;;;;5027203;28;39282;-63
2022/01/02 10:15:20;;;;;;;16.20;6.00;;;11.60;99.90;;;;;;5027477;28;37402;-63
2022/01/02 10:18:04;;;;;;;13.02;5.43;;;11.60;99.90;;;;;;5027481;28;36795;-63
2022/01/02 10:20:35;;;;;;;11.32;5.90;;;11.60;99.90;;;;;;5026699;28;37567;-63
2022/01/02 10:23:14;;;;;;;12.60;5.85;;;11.60;99.90;;;;;;5021246;28;37676;-62
2022/01/02 10:25:51;;;;;;;15.07;5.90;;;11.60;99.90;;;;;;5008685;28;37222;-63
2022/01/02 10:28:30;;;;;;;14.95;6.28;;;11.60;99.90;;;;;;5009224;28;37419;-63
2022/01/02 10:31:01;;;;;;;15.07;6.45;;;11.60;99.90;;;;;;5009573;28;36264;-62
2022/01/02 10:33:46;;;;;;;11.00;5.85;;;11.60;99.90;;;;;;5007332;28;40196;-62
2022/01/02 10:36:14;;;;;;;15.20;5.75;;;11.60;99.90;;;;;;5007220;28;38527;-62
2022/01/02 10:38:59;;;;;;;12.27;6.03;;;11.70;99.90;;;;;;5007266;28;37511;-62
2022/01/02 10:41:33;;;;;;;17.45;6.38;;;11.70;99.90;;;;;;5007357;28;37689;-63
2022/01/02 10:44:18;;;;;;;24.75;7.10;;;11.70;99.90;;;;;;5006008;28;38233;-63
2022/01/02 10:47:11;;;;;;;18.90;6.35;;;11.70;99.90;;;;;;5008451;28;37042;-63
2022/01/02 10:49:55;;;;;;;15.77;8.48;;;11.70;99.90;;;;;;5008232;28;35426;-63
2022/01/02 10:52:24;;;;;;;21.25;7.07;;;11.70;99.90;;;;;;5007673;28;39112;-63
2022/01/02 10:54:51;;;;;;;19.23;6.75;;;11.70;99.90;;;;;;5006508;28;36462;-63
2022/01/02 10:57:19;;;;;;;16.88;5.38;;;11.70;99.90;;;;;;4999276;28;37526;-63
2022/01/02 10:59:47;;;;;;;14.02;5.10;;;11.70;99.90;;;;;;5001355;28;36514;-63
2022/01/02 11:02:17;;;;;;;17.88;5.97;;;11.70;99.90;;;;;;4999773;28;37635;-63
2022/01/02 11:04:48;;;;;;;18.65;5.75;;;11.70;99.90;;;;;;5001198;28;38924;-62
2022/01/02 11:07:23;;;;;;;21.73;5.10;;;11.80;99.90;;;;;;5001254;28;36890;-62
2022/01/02 11:09:53;;;;;;;11.38;4.60;;;11.80;99.90;;;;;;5001548;28;39146;-63
2022/01/02 11:12:21;;;;;;;15.43;4.55;;;11.80;99.90;;;;;;4997717;28;38582;-63
2022/01/02 11:14:49;;;;;;;15.65;4.70;;;11.80;99.90;;;;;;5000248;28;37543;-62
2022/01/02 11:17:17;;;;;;;15.95;5.72;;;11.80;99.90;;;;;;4998448;28;36237;-63
2022/01/02 11:19:45;;;;;;;17.25;5.28;;;11.80;99.90;;;;;;4996683;28;36343;-63
2022/01/02 11:22:20;;;;;;;17.90;4.60;;;11.90;99.90;;;;;;4998112;28;37803;-63
2022/01/02 11:24:55;;;;;;;11.27;4.82;;;11.90;99.90;;;;;;4997762;28;37094;-63
2022/01/02 11:27:32;;;;;;;20.20;5.22;;;11.90;99.90;;;;;;4997611;28;36854;-62
2022/01/02 11:30:19;;;;;;;12.95;4.68;;;11.90;99.90;;;;;;4998401;28;37077;-63
2022/01/02 11:33:00;;;;;;;15.75;4.47;;;11.90;99.90;;;;;;4997324;28;37071;-63
2022/01/02 11:35:31;;;;;;;17.63;4.75;;;11.90;99.90;;;;;;4998328;28;37549;-63
2022/01/02 11:38:01;;;;;;;15.70;4.70;;;11.90;99.90;;;;;;4995057;28;37347;-62
2022/01/02 11:40:52;;;;;;;17.15;4.28;;;11.90;99.90;;;;;;4998159;28;37609;-62
2022/01/02 11:44:00;;;;;;;14.93;4.72;;;11.90;99.90;;;;;;4999766;28;36290;-62
2022/01/02 11:46:31;;;;;;;13.13;3.85;;;11.80;99.90;;;;;;4992237;28;37626;-62
2022/01/02 11:49:21;;;;;;;13.85;4.45;;;11.80;99.90;;;;;;4998482;28;37258;-62
2022/01/02 11:52:10;;;;;;;13.40;3.90;;;11.90;99.90;;;;;;4998829;28;35295;-62
2022/01/02 11:54:48;;;;;;;18.60;4.95;;;11.80;99.90;;;;;;4999602;28;38035;-61
2022/01/02 11:57:53;;;;;;;12.00;3.85;;;11.80;99.90;;;;;;4998982;28;37903;-62
2022/01/02 12:00:39;;;;;;;12.23;3.90;;;11.80;99.90;;;;;;4999600;28;37109;-63
2022/01/02 12:03:07;;;;;;;16.77;4.60;;;11.80;99.90;;;;;;4995644;28;37038;-62
2022/01/02 12:05:34;;;;;;;19.55;4.88;;;11.80;99.90;;;;;;4998283;28;37834;-63
2022/01/02 12:08:05;;;;;;;15.07;4.20;;;11.80;99.90;;;;;;4996590;28;36403;-63
2022/01/02 12:10:35;;;;;;;16.13;3.90;;;11.70;99.90;;;;;;4997840;28;38214;-63
2022/01/02 12:13:20;;;;;;;13.90;3.85;;;11.70;99.90;;;;;;5000243;28;37878;-63
2022/01/02 12:16:09;;;;;;;18.30;3.67;;;11.70;99.90;;;;;;4999561;28;38530;-63
2022/01/02 12:18:56;;;;;;;19.75;5.22;;;11.70;99.90;;;;;;4999027;28;39078;-63
2022/01/02 12:21:24;;;;;;;15.13;3.47;;;11.60;99.90;;;;;;4995978;28;37440;-63
2022/01/02 12:23:56;;;;;;;12.77;3.65;;;11.70;99.90;;;;;;5010299;28;36835;-62
2022/01/02 12:26:29;;;;;;;18.73;4.20;;;11.70;99.90;;;;;;5021023;28;37347;-62
2022/01/02 12:28:58;;;;;;;18.30;3.65;;;11.70;99.90;;;;;;5020401;28;38251;-61
2022/01/02 12:31:32;;;;;;;17.90;4.03;;;11.70;99.90;;;;;;5019887;28;37380;-61
2022/01/02 12:34:08;;;;;;;16.27;3.35;;;11.70;99.90;;;;;;5020561;28;35565;-62
2022/01/02 12:36:36;;;;;;;16.23;3.50;;;11.70;99.90;;;;;;5020168;28;38409;-62
2022/01/02 12:39:06;;;;;;;18.25;3.08;;;11.60;99.90;;;;;;5021149;28;39109;-62
2022/01/02 12:41:34;;;;;;;18.48;4.72;;;11.60;99.90;;;;;;5021052;28;37623;-61
2022/01/02 12:44:04;;;;;;;15.65;3.47;;;11.70;99.90;;;;;;5021173;28;37053;-61
2022/01/02 12:46:37;;;;;;;19.17;3.17;;;11.60;99.90;;;;;;5021100;28;38520;-61
2022/01/02 12:49:06;;;;;;;11.10;3.40;;;11.70;99.90;;;;;;5019730;28;37966;-61
2022/01/02 12:51:35;;;;;;;14.95;3.90;;;11.60;99.90;;;;;;5020779;28;36755;-60
2022/01/02 12:54:04;;;;;;;19.30;3.10;;;11.60;99.90;;;;;;5020947;28;35272;-60
2022/01/02 12:56:37;;;;;;;17.13;3.30;;;11.60;99.90;;;;;;5020690;28;38287;-60
2022/01/02 12:59:32;;;;;;;18.35;4.18;;;11.60;99.90;;;;;;5020672;28;37684;-60
2022/01/02 13:02:05;;;;;;;16.30;3.47;;;11.60;99.90;;;;;;4973461;28;38232;-60
2022/01/02 13:04:34;;;;;;;13.77;2.65;;;11.70;99.90;;;;;;5020843;28;36560;-60
2022/01/02 13:07:05;;;;;;;13.48;3.33;;;11.60;99.90;;;;;;5020422;28;37545;-60
2022/01/02 13:09:37;;;;;;;13.88;2.72;;;11.60;99.90;;;;;;5020216;28;36546;-60
2022/01/02 13:12:09;;;;;;;15.80;2.70;;;11.60;99.90;;;;;;5021063;28;36176;-60
2022/01/02 13:14:47;;;;;;;16.90;2.20;;;11.50;99.70;;;;;;5020665;28;37005;-60
2022/01/02 13:17:20;;;;;;;14.50;2.40;;;11.50;99.20;;;;;;5020876;28;38134;-60
2022/01/02 13:19:50;;;;;;;20.20;3.17;;;11.50;99.70;;;;;;5019614;28;39328;-60
2022/01/02 13:22:23;;;;;;;14.02;2.42;;;11.50;99.90;;;;;;5019724;28;38561;-60
2022/01/02 13:24:53;;;;;;;11.43;2.53;;;11.50;99.70;;;;;;5020438;28;37836;-60
2022/01/02 13:27:21;;;;;;;14.20;2.38;;;11.50;99.80;;;;;;5020368;28;36503;-60
2022/01/02 13:29:56;;;;;;;12.95;4.10;;;11.40;99.50;;;;;;5022700;28;36991;-60
2022/01/02 13:32:27;;;;;;;14.93;2.90;;;11.40;99.40;;;;;;5022001;28;38344;-60
2022/01/02 13:35:00;;;;;;;11.75;2.85;;;11.30;99.30;;;;;;5023538;28;35570;-60
2022/01/02 13:37:38;;;;;;;12.85;2.20;;;11.30;99.20;;;;;;5023477;28;37794;-60
2022/01/02 13:40:09;;;;;;;17.48;2.83;;;11.30;99.00;;;;;;5023914;28;38093;-60
2022/01/02 13:42:42;;;;;;;9.57;1.73;;;11.30;99.20;;;;;;5023478;28;37392;-60
2022/01/02 13:45:11;;;;;;;11.93;2.30;;;11.30;99.10;;;;;;5022518;28;36499;-60
2022/01/02 13:47:40;;;;;;;11.98;2.60;;;11.30;99.00;;;;;;5023411;28;38182;-60
2022/01/02 13:50:09;;;;;;;11.63;2.60;;;11.20;99.10;;;;;;5023490;28;37970;-60
2022/01/02 13:52:52;;;;;;;11.65;2.33;;;11.20;98.80;;;;;;5022116;28;38054;-60
2022/01/02 13:55:19;;;;;;;14.43;3.25;;;11.10;98.90;;;;;;5021087;28;37948;-60
2022/01/02 13:57:47;;;;;;;14.02;2.42;;;11.20;99.00;;;;;;5022041;28;38136;-60
2022/01/02 14:00:18;;;;;;;14.57;2.40;;;11.20;99.10;;;;;;5022389;28;38265;-60
2022/01/02 14:02:51;;;;;;;14.68;3.58;;;11.20;99.20;;;;;;5020901;28;38671;-60
2022/01/02 14:05:20;;;;;;;10.10;2.75;;;11.20;99.00;;;;;;5023084;28;36257;-59
2022/01/02 14:07:48;;;;;;;14.70;2.97;;;11.20;99.00;;;;;;5021495;28;37311;-60
2022/01/02 14:10:17;;;;;;;12.10;2.03;;;11.20;99.10;;;;;;5022690;28;39268;-60
2022/01/02 14:12:44;;;;;;;13.68;2.58;;;11.20;98.80;;;;;;5021895;28;38120;-60
2022/01/02 14:15:20;;;;;;;11.52;2.08;;;11.10;99.00;;;;;;5022941;28;36075;-60
2022/01/02 14:17:50;;;;;;;10.07;2.63;;;11.10;98.70;;;;;;5023069;28;38383;-59
2022/01/02 14:20:20;;;;;;;9.32;2.13;;;11.10;98.70;;;;;;5022959;28;37305;-60
2022/01/02 14:22:49;;;;;;;14.13;1.83;;;11.10;98.90;;;;;;5021789;28;38421;-59
2022/01/02 14:25:18;;;;;;;15.73;2.47;;;11.10;98.90;;;;;;5021558;28;36681;-59
2022/01/02 14:27:48;;;;;;;11.70;1.83;;;11.10;98.80;;;;;;5022307;28;37466;-59
2022/01/02 14:30:16;;;;;;;15.88;2.65;;;11.00;98.70;;;;;;5021534;28;36583;-59
2022/01/02 14:32:44;;;;;;;16.60;2.50;;;11.00;98.70;;;;;;5020938;28;37657;-60
2022/01/02 14:35:15;;;;;;;17.25;3.22;;;11.00;98.70;;;;;;5020134;28;36877;-59
2022/01/02 14:37:42;;;;;;;13.43;3.00;;;11.00;98.70;;;;;;5021460;28;38527;-59
2022/01/02 14:40:11;;;;;;;10.85;2.65;;;11.00;98.80;;;;;;5018691;28;38750;-59
2022/01/02 14:42:40;;;;;;;7.47;1.98;;;10.90;98.80;;;;;;5020371;28;36787;-59
2022/01/02 14:45:09;;;;;;;15.45;2.80;;;10.90;98.70;;;;;;5021083;28;37208;-59
2022/01/02 14:47:39;;;;;;;10.20;2.40;;;10.80;98.80;;;;;;5020670;28;38084;-59
2022/01/02 14:50:10;;;;;;;13.98;3.53;;;10.80;98.80;;;;;;5021799;28;36513;-59
2022/01/02 14:52:39;;;;;;;13.77;2.60;;;10.80;98.90;;;;;;5018893;28;37727;-59
2022/01/02 14:55:09;;;;;;;16.33;5.57;;;10.80;98.90;;;;;;5021710;28;36853;-59
2022/01/02 14:57:37;;;;;;;19.58;7.07;;;10.70;99.20;;;;;;5021013;28;37758;-59
2022/01/02 15:00:08;;;;;;;17.95;7.50;;;10.70;99.10;;;;;;5019047;28;37819;-59
2022/01/02 15:02:35;;;;;;;15.63;4.72;;;10.70;99.00;;;;;;5020498;28;37230;-59
2022/01/02 15:05:03;;;;;;;16.17;4.28;;;10.70;98.90;;;;;;5021723;28;37860;-59
2022/01/02 15:07:30;;;;;;;20.35;6.85;;;10.60;99.00;;;;;;5020614;28;37924;-59
2022/01/02 15:09:59;;;;;;;19.73;5.70;;;10.60;99.00;;;;;;5019692;28;36587;-59
2022/01/02 15:12:26;;;;;;;17.73;5.00;;;10.60;99.00;;;;;;5019996;28;37550;-59
2022/01/02 15:14:54;;;;;;;21.50;7.55;;;10.50;99.10;;;;;;5020118;28;36361;-59
2022/01/02 15:17:21;;;;;;;19.23;5.35;;;10.50;99.20;;;;;;5019886;28;38807;-59
2022/01/02 15:19:49;;;;;;;15.55;4.70;;;10.50;99.30;;;;;;5020176;28;38298;-59
2022/01/02 15:22:16;;;;;;;19.25;6.75;;;10.40;99.40;;;;;;5019086;28;37164;-59
2022/01/02 15:24:44;;;;;;;24.80;9.48;;;10.40;99.50;;;;;;5021113;28;36643;-59
2022/01/02 15:27:13;;;;;;;32.67;12.60;;;10.40;99.50;;;;;;5021008;28;37729;-59
2022/01/02 15:29:41;;;;;;;23.98;8.05;;;10.40;99.60;;;;;;5021024;28;37849;-59
2022/01/02 15:32:09;;;;;;;18.35;4.90;;;10.40;99.60;;;;;;5020908;28;37641;-59
2022/01/02 15:34:38;;;;;;;20.30;6.93;;;10.40;99.60;;;;;;5020801;28;36964;-59
2022/01/02 15:37:05;;;;;;;11.75;3.25;;;10.40;99.70;;;;;;5019229;28;37403;-59
2022/01/02 15:39:33;;;;;;;20.83;5.57;;;10.30;99.70;;;;;;5021061;28;37961;-59
2022/01/02 15:42:00;;;;;;;19.58;4.10;;;10.30;99.70;;;;;;5020783;28;38882;-59
2022/01/02 15:44:29;;;;;;;21.70;5.05;;;10.30;99.80;;;;;;5020821;28;36392;-60
2022/01/02 15:46:56;;;;;;;27.75;13.50;;;10.30;99.80;;;;;;5020683;28;37823;-60
2022/01/02 15:49:24;;;;;;;16.55;4.47;;;10.20;99.80;;;;;;5017151;28;35445;-59
2022/01/02 15:51:52;;;;;;;18.45;5.18;;;10.30;99.80;;;;;;5019743;28;38049;-59
2022/01/02 15:54:20;;;;;;;14.82;4.70;;;10.30;99.90;;;;;;5020583;28;36963;-59
2022/01/02 15:56:48;;;;;;;18.13;3.15;;;10.40;99.90;;;;;;5020736;28;37594;-59
2022/01/02 15:59:15;;;;;;;11.38;2.28;;;10.40;99.90;;;;;;5020383;28;36552;-59
2022/01/02 16:01:44;;;;;;;15.60;3.38;;;10.40;99.80;;;;;;5020620;28;37647;-59
2022/01/02 16:04:11;;;;;;;17.30;2.75;;;10.40;99.80;;;;;;5017100;28;37115;-59
2022/01/02 16:06:38;;;;;;;17.05;3.75;;;10.40;99.70;;;;;;5018970;28;37601;-59
2022/01/02 16:09:07;;;;;;;14.43;3.53;;;10.30;99.60;;;;;;5018699;28;40709;-59
2022/01/02 16:11:34;;;;;;;13.68;2.80;;;10.30;99.70;;;;;;5019137;28;36987;-59
2022/01/02 16:14:04;;;;;;;13.25;2.55;;;10.30;99.70;;;;;;5018911;28;37029;-59
2022/01/02 16:16:31;;;;;;;14.07;2.33;;;10.30;99.70;;;;;;5020331;28;39246;-59
2022/01/02 16:19:00;;;;;;;14.85;2.83;;;10.30;99.60;;;;;;5020534;28;38416;-60
2022/01/02 16:21:27;;;;;;;13.43;2.78;;;10.30;99.70;;;;;;5020997;28;37267;-59
2022/01/02 16:23:56;;;;;;;8.88;2.17;;;10.30;99.70;;;;;;5019944;28;36663;-59
2022/01/02 16:26:24;;;;;;;13.57;3.90;;;10.30;99.70;;;;;;5020726;28;37797;-59
2022/01/02 16:28:52;;;;;;;16.02;3.30;;;10.30;99.70;;;;;;5020671;28;37726;-59
2022/01/02 16:31:21;;;;;;;11.63;2.55;;;10.30;99.70;;;;;;5021372;28;38876;-59
2022/01/02 16:33:49;;;;;;;14.45;2.90;;;10.30;99.70;;;;;;5021342;28;36785;-59
2022/01/02 16:36:19;;;;;;;18.92;4.28;;;10.30;99.60;;;;;;5021802;28;36265;-59
2022/01/02 16:38:47;;;;;;;11.57;3.10;;;10.30;99.60;;;;;;5020363;28;37964;-59
2022/01/02 16:41:14;;;;;;;19.58;3.30;;;10.30;99.60;;;;;;5020657;28;38372;-59
2022/01/02 16:43:42;;;;;;;11.90;3.05;;;10.30;99.50;;;;;;5020064;28;35270;-59
2022/01/02 16:46:10;;;;;;;12.77;2.95;;;10.30;99.50;;;;;;5021274;28;37645;-59
2022/01/02 16:48:38;;;;;;;12.85;2.15;;;10.30;99.50;;;;;;5020661;28;37776;-59
2022/01/02 16:51:05;;;;;;;11.15;2.45;;;10.30;99.50;;;;;;5019933;28;38778;-59
2022/01/02 16:53:34;;;;;;;18.23;4.25;;;10.30;99.40;;;;;;5020731;28;35477;-59
2022/01/02 16:56:01;;;;;;;13.98;3.63;;;10.20;99.40;;;;;;5020548;28;37397;-59
2022/01/02 16:58:29;;;;;;;14.13;3.80;;;10.20;99.40;;;;;;5021110;28;39367;-59
2022/01/02 17:00:56;;;;;;;15.52;2.53;;;10.20;99.20;;;;;;5020089;28;38657;-59
2022/01/02 17:03:24;;;;;;;15.43;2.58;;;10.20;99.20;;;;;;5019814;28;35410;-59
2022/01/02 17:05:52;;;;;;;13.52;1.90;;;10.20;99.30;;;;;;5019988;28;37179;-59
2022/01/02 17:08:19;;;;;;;6.93;1.67;;;10.20;99.30;;;;;;5019603;28;37664;-59
2022/01/02 17:10:48;;;;;;;13.80;2.58;;;10.20;99.40;;;;;;5020719;28;39451;-59
2022/01/02 17:13:15;;;;;;;14.38;3.05;;;10.10;99.30;;;;;;5020121;28;37166;-59
2022/01/02 17:15:43;;;;;;;15.82;3.50;;;10.10;99.30;;;;;;5021132;28;36305;-60
2022/01/02 17:18:10;;;;;;;11.63;4.35;;;10.10;99.30;;;;;;5020847;28;37760;-59
2022/01/02 17:20:39;;;;;;;13.80;4.25;;;10.10;99.30;;;;;;5020588;28;38385;-60
2022/01/02 17:23:07;;;;;;;16.35;6.70;;;10.00;99.20;;;;;;5019393;28;36326;-59
2022/01/02 17:25:35;;;;;;;14.27;3.03;;;10.00;99.30;;;;;;5017274;28;36335;-59
2022/01/02 17:28:04;;;;;;;11.13;2.95;;;10.00;99.30;;;;;;5017285;28;40882;-59
2022/01/02 17:30:34;;;;;;;15.00;3.10;;;10.00;99.20;;;;;;5019288;28;37211;-59
2022/01/02 17:33:01;;;;;;;10.63;3.00;;;10.00;99.20;;;;;;5019781;28;38292;-59
2022/01/02 17:35:28;;;;;;;10.77;3.05;;;9.90;99.20;;;;;;5019437;28;38550;-59
2022/01/02 17:37:56;;;;;;;13.18;2.63;;;9.90;99.20;;;;;;5019600;28;38529;-59
2022/01/02 17:40:23;;;;;;;16.05;3.72;;;9.90;99.30;;;;;;5019194;28;37455;-59
2022/01/02 17:42:51;;;;;;;11.63;3.20;;;9.90;99.20;;;;;;5020468;28;35519;-59
2022/01/02 17:45:20;;;;;;;14.52;3.15;;;9.90;99.20;;;;;;5020055;28;36336;-59
2022/01/02 17:47:48;;;;;;;10.75;2.58;;;9.90;99.10;;;;;;5019473;28;37569;-59
2022/01/02 17:50:17;;;;;;;10.65;2.22;;;9.80;99.00;;;;;;5018447;28;37344;-59
2022/01/02 17:52:45;;;;;;;13.30;2.60;;;9.80;99.10;;;;;;5018537;28;36311;-58
2022/01/02 17:55:13;;;;;;;12.18;2.83;;;9.80;99.10;;;;;;5018646;28;37712;-59
2022/01/02 17:57:41;;;;;;;19.88;4.43;;;9.80;99.10;;;;;;5018543;28;37661;-59
2022/01/02 18:00:12;;;;;;;12.05;2.17;;;9.80;99.10;;;;;;5019595;28;37583;-59
2022/01/02 18:02:41;;;;;;;12.93;3.20;;;9.80;99.00;;;;;;5019236;28;36526;-59
2022/01/02 18:05:10;;;;;;;13.50;2.65;;;9.80;99.00;;;;;;5018033;28;37662;-59
2022/01/02 18:07:37;;;;;;;10.50;2.22;;;9.80;98.90;;;;;;5018597;28;38242;-59
2022/01/02 18:10:07;;;;;;;11.80;2.30;;;9.80;98.90;;;;;;5017404;28;37879;-59
2022/01/02 18:12:38;;;;;;;11.40;2.10;;;9.80;99.00;;;;;;5018971;28;36334;-59
2022/01/02 18:15:09;;;;;;;13.02;2.42;;;9.80;98.90;;;;;;5021606;28;37501;-59
2022/01/02 18:17:37;;;;;;;14.45;2.55;;;9.80;98.90;;;;;;5023708;28;39070;-59
2022/01/02 18:20:08;;;;;;;13.82;2.72;;;9.80;99.00;;;;;;5022076;28;37330;-59
2022/01/02 18:22:36;;;;;;;11.32;2.58;;;9.80;98.90;;;;;;5023396;28;34951;-59
2022/01/02 18:25:04;;;;;;;11.07;2.28;;;9.90;99.00;;;;;;5021067;28;37418;-59
2022/01/02 18:27:33;;;;;;;13.70;2.45;;;9.90;99.00;;;;;;5023037;28;39170;-59
2022/01/02 18:30:02;;;;;;;12.48;2.20;;;9.90;99.00;;;;;;5022897;28;36179;-58
2022/01/02 18:32:29;;;;;;;13.40;2.55;;;9.90;99.00;;;;;;5022686;28;36608;-59
2022/01/02 18:34:57;;;;;;;17.83;3.30;;;9.90;99.00;;;;;;5021774;28;38068;-59
2022/01/02 18:37:26;;;;;;;10.60;1.90;;;9.90;99.10;;;;;;5021114;28;38435;-59
2022/01/02 18:39:53;;;;;;;10.43;2.15;;;9.90;99.10;;;;;;5022154;28;37613;-59
2022/01/02 18:42:21;;;;;;;11.75;2.45;;;9.90;99.10;;;;;;5022223;28;36529;-59
2022/01/02 18:44:50;;;;;;;13.40;2.05;;;9.90;99.10;;;;;;5021561;28;36322;-59
2022/01/02 18:47:17;;;;;;;13.65;2.55;;;9.90;99.10;;;;;;5022327;28;37900;-58
2022/01/02 18:49:45;;;;;;;11.82;2.00;;;9.80;99.10;;;;;;5021982;28;39381;-59
2022/01/02 18:52:12;;;;;;;10.05;2.15;;;9.90;99.20;;;;;;5022810;28;36577;-59
2022/01/02 18:54:41;;;;;;;12.25;2.58;;;9.80;99.20;;;;;;5022761;28;36202;-59
2022/01/02 18:57:08;;;;;;;16.40;2.45;;;9.80;99.30;;;;;;5022748;28;36525;-58
2022/01/02 18:59:35;;;;;;;10.38;2.20;;;9.80;99.50;;;;;;5022806;28;39270;-58
2022/01/02 19:02:03;;;;;;;10.82;2.90;;;9.70;99.40;;;;;;5022627;28;36512;-58
2022/01/02 19:04:30;;;;;;;11.25;2.05;;;9.70;99.50;;;;;;5022651;28;38040;-59
2022/01/02 19:06:58;;;;;;;12.07;2.22;;;9.70;99.60;;;;;;5022245;28;38062;-59
2022/01/02 19:09:25;;;;;;;13.68;2.22;;;9.70;99.60;;;;;;5021896;28;37777;-59
2022/01/02 19:11:54;;;;;;;14.65;2.63;;;9.70;99.70;;;;;;5022318;28;37123;-58
2022/01/02 19:14:21;;;;;;;13.40;3.78;;;9.70;99.80;;;;;;5021951;28;37406;-58
2022/01/02 19:16:48;;;;;;;16.25;3.00;;;9.70;99.90;;;;;;5021435;28;37923;-58
2022/01/02 19:19:16;;;;;;;11.40;2.72;;;9.70;99.90;;;;;;5022471;28;37388;-59
2022/01/02 19:21:45;;;;;;;15.25;2.58;;;9.80;99.90;;;;;;5022007;28;36068;-59
2022/01/02 19:24:12;;;;;;;12.70;2.63;;;9.80;99.90;;;;;;5021676;28;38709;-59
2022/01/02 19:26:39;;;;;;;12.02;3.20;;;9.80;99.90;;;;;;5019626;28;37931;-58
2022/01/02 19:29:08;;;;;;;15.98;3.22;;;9.80;99.90;;;;;;5021021;28;37436;-58
2022/01/02 19:31:36;;;;;;;10.93;2.58;;;9.80;99.90;;;;;;5021967;28;37890;-59
2022/01/02 19:34:05;;;;;;;14.15;2.90;;;9.70;99.90;;;;;;5021556;28;38970;-59
2022/01/02 19:36:33;;;;;;;14.52;2.70;;;9.80;99.90;;;;;;5020267;28;38903;-59
2022/01/02 19:39:03;;;;;;;12.57;2.45;;;9.80;99.90;;;;;;5021288;28;37083;-59
2022/01/02 19:41:32;;;;;;;17.45;2.90;;;9.80;99.90;;;;;;5022246;28;35948;-58
2022/01/02 19:44:00;;;;;;;14.93;3.38;;;9.80;99.90;;;;;;5022263;28;37843;-59
2022/01/02 19:46:30;;;;;;;20.75;3.33;;;9.80;99.90;;;;;;5022782;28;37825;-58
2022/01/02 19:48:58;;;;;;;17.85;3.55;;;9.80;99.90;;;;;;5020928;28;37392;-58
2022/01/02 19:51:26;;;;;;;17.17;3.03;;;9.80;99.90;;;;;;5021126;28;35357;-58
2022/01/02 19:53:53;;;;;;;14.50;3.05;;;9.80;99.90;;;;;;5021692;28;37027;-58
2022/01/02 19:56:20;;;;;;;15.52;3.40;;;9.80;99.90;;;;;;5021100;28;37754;-59
2022/01/02 19:58:48;;;;;;;14.60;3.65;;;9.80;99.90;;;;;;5021683;28;36428;-59
2022/01/02 20:01:15;;;;;;;19.92;3.72;;;9.80;99.90;;;;;;5020940;28;38479;-58
2022/01/02 20:03:44;;;;;;;19.95;3.05;;;9.80;99.90;;;;;;5021580;28;38332;-58
2022/01/02 20:06:11;;;;;;;10.77;2.70;;;9.90;99.90;;;;;;5020287;28;38414;-58
2022/01/02 20:08:41;;;;;;;20.20;3.35;;;9.90;99.90;;;;;;5020893;28;37329;-58
2022/01/02 20:11:09;;;;;;;18.88;2.97;;;9.90;99.90;;;;;;5020136;28;36617;-58
2022/01/02 20:13:36;;;;;;;20.92;3.30;;;9.90;99.90;;;;;;5020198;28;37592;-58
2022/01/02 20:16:04;;;;;;;15.50;3.17;;;9.90;99.90;;;;;;5021687;28;37369;-58
2022/01/02 20:18:33;;;;;;;18.70;2.70;;;9.90;99.90;;;;;;5020943;28;37152;-58
2022/01/02 20:21:02;;;;;;;21.35;3.60;;;10.00;99.90;;;;;;5019358;28;37025;-58
2022/01/02 20:23:29;;;;;;;18.35;3.70;;;10.00;99.90;;;;;;5019850;28;37049;-58
2022/01/02 20:25:56;;;;;;;21.58;3.90;;;10.00;99.90;;;;;;5021276;28;38608;-58
2022/01/02 20:28:24;;;;;;;24.20;3.88;;;10.00;99.90;;;;;;5020758;28;37811;-58
2022/01/02 20:30:51;;;;;;;27.90;5.07;;;10.10;99.90;;;;;;5019869;28;36611;-58
2022/01/02 20:33:18;;;;;;;16.92;3.08;;;10.10;99.90;;;;;;5020806;28;38132;-58
2022/01/02 20:35:46;;;;;;;18.42;3.53;;;10.20;99.90;;;;;;5021561;28;40664;-58
2022/01/02 20:38:15;;;;;;;16.67;3.33;;;10.20;99.90;;;;;;5021690;28;37958;-58
2022/01/02 20:40:42;;;;;;;19.52;4.30;;;10.00;99.90;;;;;;5021798;28;36737;-58
2022/01/02 20:43:10;;;;;;;20.55;3.10;;;10.20;99.90;;;;;;5021519;28;37567;-58
2022/01/02 20:45:37;;;;;;;15.88;2.80;;;10.20;99.90;;;;;;5021393;28;36454;-58
2022/01/02 20:48:08;;;;;;;15.88;2.95;;;10.30;99.90;;;;;;5021186;28;38237;-58
2022/01/02 20:50:37;;;;;;;14.43;2.30;;;10.30;99.90;;;;;;5020573;28;36662;-59
2022/01/02 20:53:06;;;;;;;20.80;2.92;;;10.30;99.90;;;;;;5021110;28;39291;-59
2022/01/02 20:55:35;;;;;;;15.20;2.30;;;10.30;99.90;;;;;;5020551;28;39405;-58
2022/01/02 20:58:04;;;;;;;16.55;3.10;;;10.30;99.90;;;;;;5020386;28;36517;-58
2022/01/02 21:00:34;;;;;;;11.88;2.08;;;10.30;99.90;;;;;;5021127;28;36543;-58
2022/01/02 21:03:01;;;;;;;8.55;1.65;;;10.20;99.90;;;;;;5021414;28;37448;-59
2022/01/02 21:05:30;;;;;;;13.07;2.25;;;10.20;99.90;;;;;;5020890;28;37832;-59
2022/01/02 21:07:57;;;;;;;8.55;1.33;;;10.20;99.90;;;;;;5019142;28;38088;-59
2022/01/02 21:10:25;;;;;;;10.77;1.92;;;10.10;99.90;;;;;;5019377;28;38961;-59
2022/01/02 21:12:54;;;;;;;13.38;2.25;;;10.20;99.90;;;;;;5021037;28;37126;-59
2022/01/02 21:15:22;;;;;;;12.27;1.77;;;10.10;99.90;;;;;;5019553;28;36439;-59
2022/01/02 21:17:49;;;;;;;12.60;1.80;;;10.10;99.90;;;;;;5018597;28;39021;-59
2022/01/02 21:20:19;;;;;;;11.00;1.83;;;10.10;99.90;;;;;;5019777;28;36972;-59
2022/01/02 21:22:48;;;;;;;8.80;1.30;;;10.10;99.90;;;;;;5020328;28;37068;-59
2022/01/02 21:25:17;;;;;;;6.82;1.58;;;10.10;99.90;;;;;;5020317;28;38532;-59
2022/01/02 21:27:45;;;;;;;5.50;1.23;;;10.00;99.90;;;;;;5020062;28;38073;-59
2022/01/02 21:30:16;;;;;;;4.57;1.17;;;10.00;99.90;;;;;;5020958;28;35271;-59
2022/01/02 21:32:44;;;;;;;8.50;1.40;;;10.00;99.90;;;;;;5018141;28;38049;-60
2022/01/02 21:35:15;;;;;;;9.90;1.40;;;9.90;99.90;;;;;;5019801;28;37640;-60
2022/01/02 21:37:44;;;;;;;6.55;1.65;;;9.90;99.90;;;;;;5019363;28;37543;-59
2022/01/02 21:40:13;;;;;;;4.97;0.88;;;9.70;99.90;;;;;;5019852;28;37094;-60
2022/01/02 21:42:40;;;;;;;5.90;1.17;;;9.80;99.90;;;;;;5019834;28;38055;-60
2022/01/02 21:45:09;;;;;;;10.77;1.20;;;9.80;99.90;;;;;;5019480;28;37735;-59
2022/01/02 21:47:37;;;;;;;4.97;0.82;;;9.80;99.90;;;;;;5019319;28;37399;-59
2022/01/02 21:50:06;;;;;;;6.57;1.20;;;9.80;99.90;;;;;;5023026;28;37015;-59
2022/01/02 21:52:34;;;;;;;8.15;1.20;;;9.70;99.90;;;;;;5023830;28;38159;-59
2022/01/02 21:55:03;;;;;;;7.82;1.23;;;9.70;99.90;;;;;;5023493;28;38706;-59
2022/01/02 21:57:31;;;;;;;6.65;1.30;;;9.70;99.90;;;;;;5023201;28;39055;-58
2022/01/02 21:59:59;;;;;;;5.47;1.20;;;9.70;99.90;;;;;;5023465;28;35217;-59
2022/01/02 22:02:28;;;;;;;5.43;1.00;;;9.70;99.90;;;;;;5022548;28;35304;-59
2022/01/02 22:04:57;;;;;;;9.43;1.20;;;9.70;99.90;;;;;;5023716;28;38484;-59
2022/01/02 22:07:26;;;;;;;6.00;1.05;;;9.70;99.90;;;;;;5021179;28;38803;-59